sensor_id;sensor_type;location;lat;lon;timestamp;temperature;humidity
32348;DHT22;18821;44.800;10.326;2023-08-30T00:01:00;18.10;99.90
32348;DHT22;18821;44.800;10.326;2023-08-30T00:03:26;18.00;99.90
32348;DHT22;18821;44.800;10.326;2023-08-30T00:05:52;18.10;99.90
32348;DHT22;18821;44.800;10.326;2023-08-30T00:08:17;18.20;99.90
32348;DHT22;18821;44.800;10.326;2023-08-30T00:10:45;18.20;99.90
32348;DHT22;18821;44.800;10.326;2023-08-30T00:13:11;18.30;99.90
32348;DHT22;18821;44.800;10.326;2023-08-30T00:15:37;18.30;99.90
32348;DHT22;18821;44.800;10.326;2023-08-30T00:18:04;18.20;99.90
32348;DHT22;18821;44.800;10.326;2023-08-30T00:20:30;18.30;99.90
32348;DHT22;18821;44.800;10.326;2023-08-30T00:22:56;17.70;99.90
32348;DHT22;18821;44.800;10.326;2023-08-30T00:25:22;17.90;99.90
32348;DHT22;18821;44.800;10.326;2023-08-30T00:27:48;17.80;99.90
32348;DHT22;18821;44.800;10.326;2023-08-30T00:30:14;18.00;99.90
32348;DHT22;18821;44.800;10.326;2023-08-30T00:32:40;17.90;99.90
32348;DHT22;18821;44.800;10.326;2023-08-30T00:35:06;17.90;99.90
32348;DHT22;18821;44.800;10.326;2023-08-30T00:37:32;17.60;99.90
32348;DHT22;18821;44.800;10.326;2023-08-30T00:39:58;17.70;99.90
32348;DHT22;18821;44.800;10.326;2023-08-30T00:42:28;17.70;99.90
32348;DHT22;18821;44.800;10.326;2023-08-30T00:44:54;17.60;99.90
32348;DHT22;18821;44.800;10.326;2023-08-30T00:47:21;17.60;99.90
32348;DHT22;18821;44.800;10.326;2023-08-30T00:49:47;18.50;99.90
32348;DHT22;18821;44.800;10.326;2023-08-30T00:52:14;17.90;99.90
32348;DHT22;18821;44.800;10.326;2023-08-30T00:54:40;17.70;99.90
32348;DHT22;18821;44.800;10.326;2023-08-30T00:57:07;18.00;99.90
32348;DHT22;18821;44.800;10.326;2023-08-30T01:02:01;17.70;99.90
32348;DHT22;18821;44.800;10.326;2023-08-30T01:04:28;17.80;99.90
32348;DHT22;18821;44.800;10.326;2023-08-30T01:09:23;17.70;99.90
32348;DHT22;18821;44.800;10.326;2023-08-30T01:12:09;17.70;99.90
32348;DHT22;18821;44.800;10.326;2023-08-30T01:15:06;17.70;99.90
32348;DHT22;18821;44.800;10.326;2023-08-30T01:17:35;17.60;99.90
32348;DHT22;18821;44.800;10.326;2023-08-30T01:20:06;17.60;99.90
32348;DHT22;18821;44.800;10.326;2023-08-30T01:23:05;17.40;99.90
32348;DHT22;18821;44.800;10.326;2023-08-30T01:28:05;17.60;99.90
32348;DHT22;18821;44.800;10.326;2023-08-30T01:30:34;17.60;99.90
32348;DHT22;18821;44.800;10.326;2023-08-30T01:33:01;17.80;99.90
32348;DHT22;18821;44.800;10.326;2023-08-30T01:35:32;17.60;99.90
32348;DHT22;18821;44.800;10.326;2023-08-30T01:38:02;17.70;99.90
32348;DHT22;18821;44.800;10.326;2023-08-30T01:40:38;17.50;99.90
32348;DHT22;18821;44.800;10.326;2023-08-30T01:43:06;17.50;99.90
32348;DHT22;18821;44.800;10.326;2023-08-30T01:45:38;17.70;99.90
32348;DHT22;18821;44.800;10.326;2023-08-30T01:48:10;17.60;99.90
32348;DHT22;18821;44.800;10.326;2023-08-30T01:50:39;17.60;99.90
32348;DHT22;18821;44.800;10.326;2023-08-30T01:53:07;17.60;99.90
32348;DHT22;18821;44.800;10.326;2023-08-30T01:55:36;17.80;99.90
32348;DHT22;18821;44.800;10.326;2023-08-30T01:58:03;17.60;99.90
32348;DHT22;18821;44.800;10.326;2023-08-30T02:00:29;17.70;99.90
32348;DHT22;18821;44.800;10.326;2023-08-30T02:02:57;17.80;99.90
32348;DHT22;18821;44.800;10.326;2023-08-30T02:05:23;17.90;99.90
32348;DHT22;18821;44.800;10.326;2023-08-30T02:08:13;17.80;99.90
32348;DHT22;18821;44.800;10.326;2023-08-30T02:10:45;17.80;99.90
32348;DHT22;18821;44.800;10.326;2023-08-30T02:13:14;17.80;99.90
32348;DHT22;18821;44.800;10.326;2023-08-30T02:15:41;17.80;99.90
32348;DHT22;18821;44.800;10.326;2023-08-30T02:18:09;17.80;99.90
32348;DHT22;18821;44.800;10.326;2023-08-30T02:20:35;17.80;99.90
32348;DHT22;18821;44.800;10.326;2023-08-30T02:23:01;17.80;99.90
32348;DHT22;18821;44.800;10.326;2023-08-30T02:25:28;17.90;99.90
32348;DHT22;18821;44.800;10.326;2023-08-30T02:27:54;17.80;99.90
32348;DHT22;18821;44.800;10.326;2023-08-30T02:30:20;17.80;99.90
32348;DHT22;18821;44.800;10.326;2023-08-30T02:32:46;17.80;99.90
32348;DHT22;18821;44.800;10.326;2023-08-30T02:35:12;17.90;99.90
32348;DHT22;18821;44.800;10.326;2023-08-30T02:37:38;17.90;99.90
32348;DHT22;18821;44.800;10.326;2023-08-30T02:40:06;17.90;99.90
32348;DHT22;18821;44.800;10.326;2023-08-30T02:42:32;17.90;99.90
32348;DHT22;18821;44.800;10.326;2023-08-30T02:45:00;17.20;99.90
32348;DHT22;18821;44.800;10.326;2023-08-30T02:47:26;17.90;99.90
32348;DHT22;18821;44.800;10.326;2023-08-30T02:49:52;17.90;99.90
32348;DHT22;18821;44.800;10.326;2023-08-30T02:52:18;17.90;99.90
32348;DHT22;18821;44.800;10.326;2023-08-30T02:54:44;17.80;99.90
32348;DHT22;18821;44.800;10.326;2023-08-30T02:57:10;17.80;99.90
32348;DHT22;18821;44.800;10.326;2023-08-30T02:59:36;17.90;99.90
32348;DHT22;18821;44.800;10.326;2023-08-30T03:02:05;17.80;99.90
32348;DHT22;18821;44.800;10.326;2023-08-30T03:09:27;17.80;99.90
32348;DHT22;18821;44.800;10.326;2023-08-30T03:11:55;17.90;99.90
32348;DHT22;18821;44.800;10.326;2023-08-30T03:14:21;17.90;99.90
32348;DHT22;18821;44.800;10.326;2023-08-30T03:16:47;18.00;99.90
32348;DHT22;18821;44.800;10.326;2023-08-30T03:19:13;17.90;99.90
32348;DHT22;18821;44.800;10.326;2023-08-30T03:21:40;17.90;99.90
32348;DHT22;18821;44.800;10.326;2023-08-30T03:24:07;17.90;99.90
32348;DHT22;18821;44.800;10.326;2023-08-30T03:26:36;17.90;99.90
32348;DHT22;18821;44.800;10.326;2023-08-30T03:29:02;17.90;99.90
32348;DHT22;18821;44.800;10.326;2023-08-30T03:31:29;18.20;99.90
32348;DHT22;18821;44.800;10.326;2023-08-30T03:33:55;17.90;99.90
32348;DHT22;18821;44.800;10.326;2023-08-30T03:38:47;17.80;99.90
32348;DHT22;18821;44.800;10.326;2023-08-30T03:41:14;18.00;99.90
32348;DHT22;18821;44.800;10.326;2023-08-30T03:43:42;17.90;99.90
32348;DHT22;18821;44.800;10.326;2023-08-30T03:53:33;17.80;99.90
32348;DHT22;18821;44.800;10.326;2023-08-30T04:00:52;18.00;99.90
32348;DHT22;18821;44.800;10.326;2023-08-30T04:05:45;17.90;99.90
32348;DHT22;18821;44.800;10.326;2023-08-30T04:08:11;17.90;99.90
32348;DHT22;18821;44.800;10.326;2023-08-30T04:10:38;17.80;99.90
32348;DHT22;18821;44.800;10.326;2023-08-30T04:13:05;17.70;99.90
32348;DHT22;18821;44.800;10.326;2023-08-30T04:15:38;17.70;99.90
32348;DHT22;18821;44.800;10.326;2023-08-30T04:18:05;17.70;99.90
32348;DHT22;18821;44.800;10.326;2023-08-30T04:20:33;17.90;99.90
32348;DHT22;18821;44.800;10.326;2023-08-30T04:23:01;17.90;99.90
32348;DHT22;18821;44.800;10.326;2023-08-30T04:25:30;18.00;99.90
32348;DHT22;18821;44.800;10.326;2023-08-30T04:27:57;18.00;99.90
32348;DHT22;18821;44.800;10.326;2023-08-30T04:30:24;17.90;99.90
32348;DHT22;18821;44.800;10.326;2023-08-30T04:35:18;17.90;99.90
32348;DHT22;18821;44.800;10.326;2023-08-30T04:42:37;17.90;99.90
32348;DHT22;18821;44.800;10.326;2023-08-30T04:45:06;17.70;99.90
32348;DHT22;18821;44.800;10.326;2023-08-30T04:47:33;17.90;99.90
32348;DHT22;18821;44.800;10.326;2023-08-30T04:50:00;18.00;99.90
32348;DHT22;18821;44.800;10.326;2023-08-30T04:52:26;18.00;99.90
32348;DHT22;18821;44.800;10.326;2023-08-30T04:54:55;18.10;99.90
32348;DHT22;18821;44.800;10.326;2023-08-30T04:57:23;18.20;99.90
32348;DHT22;18821;44.800;10.326;2023-08-30T04:59:49;18.10;99.90
32348;DHT22;18821;44.800;10.326;2023-08-30T05:02:15;18.20;99.90
32348;DHT22;18821;44.800;10.326;2023-08-30T05:04:58;18.20;99.90
32348;DHT22;18821;44.800;10.326;2023-08-30T05:07:25;18.20;99.90
32348;DHT22;18821;44.800;10.326;2023-08-30T05:09:52;18.20;99.90
32348;DHT22;18821;44.800;10.326;2023-08-30T05:12:18;18.20;99.90
32348;DHT22;18821;44.800;10.326;2023-08-30T05:15:02;18.20;99.90
32348;DHT22;18821;44.800;10.326;2023-08-30T05:17:30;18.30;99.90
32348;DHT22;18821;44.800;10.326;2023-08-30T05:19:58;18.30;99.90
32348;DHT22;18821;44.800;10.326;2023-08-30T05:22:24;18.20;99.90
32348;DHT22;18821;44.800;10.326;2023-08-30T05:24:50;18.30;99.90
32348;DHT22;18821;44.800;10.326;2023-08-30T05:27:16;18.30;99.90
32348;DHT22;18821;44.800;10.326;2023-08-30T05:29:43;18.10;99.90
32348;DHT22;18821;44.800;10.326;2023-08-30T05:32:09;18.10;99.90
32348;DHT22;18821;44.800;10.326;2023-08-30T05:34:46;18.30;99.90
32348;DHT22;18821;44.800;10.326;2023-08-30T05:37:22;18.70;99.90
32348;DHT22;18821;44.800;10.326;2023-08-30T05:40:13;18.60;99.90
32348;DHT22;18821;44.800;10.326;2023-08-30T05:42:43;18.70;99.90
32348;DHT22;18821;44.800;10.326;2023-08-30T05:45:09;18.80;99.90
32348;DHT22;18821;44.800;10.326;2023-08-30T05:47:35;18.90;99.90
32348;DHT22;18821;44.800;10.326;2023-08-30T05:50:03;18.90;99.90
32348;DHT22;18821;44.800;10.326;2023-08-30T05:52:29;18.90;99.90
32348;DHT22;18821;44.800;10.326;2023-08-30T05:54:55;19.00;99.90
32348;DHT22;18821;44.800;10.326;2023-08-30T05:57:21;19.00;99.90
32348;DHT22;18821;44.800;10.326;2023-08-30T05:59:49;19.10;99.90
32348;DHT22;18821;44.800;10.326;2023-08-30T06:02:15;19.10;99.90
32348;DHT22;18821;44.800;10.326;2023-08-30T06:04:42;19.10;99.90
32348;DHT22;18821;44.800;10.326;2023-08-30T06:07:11;19.00;99.90
32348;DHT22;18821;44.800;10.326;2023-08-30T06:09:38;19.00;99.90
32348;DHT22;18821;44.800;10.326;2023-08-30T06:12:04;19.00;99.90
32348;DHT22;18821;44.800;10.326;2023-08-30T06:14:31;19.10;99.90
32348;DHT22;18821;44.800;10.326;2023-08-30T06:16:57;19.20;99.90
32348;DHT22;18821;44.800;10.326;2023-08-30T06:19:23;19.20;99.90
32348;DHT22;18821;44.800;10.326;2023-08-30T06:21:49;19.30;99.90
32348;DHT22;18821;44.800;10.326;2023-08-30T06:24:15;19.30;99.90
32348;DHT22;18821;44.800;10.326;2023-08-30T06:26:41;19.30;99.90
32348;DHT22;18821;44.800;10.326;2023-08-30T06:29:07;19.40;99.90
32348;DHT22;18821;44.800;10.326;2023-08-30T06:31:33;19.50;99.90
32348;DHT22;18821;44.800;10.326;2023-08-30T06:33:59;19.50;99.90
32348;DHT22;18821;44.800;10.326;2023-08-30T06:36:25;19.60;99.90
32348;DHT22;18821;44.800;10.326;2023-08-30T06:38:51;19.70;99.90
32348;DHT22;18821;44.800;10.326;2023-08-30T06:41:17;19.70;99.90
32348;DHT22;18821;44.800;10.326;2023-08-30T06:43:44;19.70;99.90
32348;DHT22;18821;44.800;10.326;2023-08-30T06:46:10;19.70;99.90
32348;DHT22;18821;44.800;10.326;2023-08-30T06:48:36;19.80;99.90
32348;DHT22;18821;44.800;10.326;2023-08-30T06:51:02;19.80;99.90
32348;DHT22;18821;44.800;10.326;2023-08-30T06:53:29;19.90;99.90
32348;DHT22;18821;44.800;10.326;2023-08-30T06:56:01;19.90;99.90
32348;DHT22;18821;44.800;10.326;2023-08-30T06:58:27;19.90;99.90
32348;DHT22;18821;44.800;10.326;2023-08-30T07:00:53;19.90;99.90
32348;DHT22;18821;44.800;10.326;2023-08-30T07:03:20;20.00;99.90
32348;DHT22;18821;44.800;10.326;2023-08-30T07:05:46;20.10;99.90
32348;DHT22;18821;44.800;10.326;2023-08-30T07:08:15;20.20;99.90
32348;DHT22;18821;44.800;10.326;2023-08-30T07:10:41;20.30;99.90
32348;DHT22;18821;44.800;10.326;2023-08-30T07:13:07;20.20;99.90
32348;DHT22;18821;44.800;10.326;2023-08-30T07:15:41;20.30;99.90
32348;DHT22;18821;44.800;10.326;2023-08-30T07:18:09;20.40;99.90
32348;DHT22;18821;44.800;10.326;2023-08-30T07:20:35;20.40;99.90
32348;DHT22;18821;44.800;10.326;2023-08-30T07:23:04;20.30;99.90
32348;DHT22;18821;44.800;10.326;2023-08-30T07:25:31;20.50;99.90
32348;DHT22;18821;44.800;10.326;2023-08-30T07:27:59;20.50;99.90
32348;DHT22;18821;44.800;10.326;2023-08-30T07:30:25;20.70;99.90
32348;DHT22;18821;44.800;10.326;2023-08-30T07:32:52;20.80;99.90
32348;DHT22;18821;44.800;10.326;2023-08-30T07:35:17;20.70;99.90
32348;DHT22;18821;44.800;10.326;2023-08-30T07:37:43;20.80;99.90
32348;DHT22;18821;44.800;10.326;2023-08-30T07:40:10;20.70;99.90
32348;DHT22;18821;44.800;10.326;2023-08-30T07:42:36;20.70;99.90
32348;DHT22;18821;44.800;10.326;2023-08-30T07:45:02;21.20;99.90
32348;DHT22;18821;44.800;10.326;2023-08-30T07:47:31;21.10;99.90
32348;DHT22;18821;44.800;10.326;2023-08-30T07:49:56;21.30;99.90
32348;DHT22;18821;44.800;10.326;2023-08-30T07:52:22;21.30;99.90
32348;DHT22;18821;44.800;10.326;2023-08-30T07:54:48;21.30;99.90
32348;DHT22;18821;44.800;10.326;2023-08-30T07:57:14;21.00;99.90
32348;DHT22;18821;44.800;10.326;2023-08-30T08:02:07;21.00;99.90
32348;DHT22;18821;44.800;10.326;2023-08-30T08:04:34;21.20;99.90
32348;DHT22;18821;44.800;10.326;2023-08-30T08:07:01;21.70;99.90
32348;DHT22;18821;44.800;10.326;2023-08-30T08:09:27;21.70;99.90
32348;DHT22;18821;44.800;10.326;2023-08-30T08:11:55;22.10;99.90
32348;DHT22;18821;44.800;10.326;2023-08-30T08:14:23;22.10;99.90
32348;DHT22;18821;44.800;10.326;2023-08-30T08:16:49;22.00;99.90
32348;DHT22;18821;44.800;10.326;2023-08-30T08:19:15;22.00;99.90
32348;DHT22;18821;44.800;10.326;2023-08-30T08:21:41;22.20;99.90
32348;DHT22;18821;44.800;10.326;2023-08-30T08:24:07;22.50;99.90
32348;DHT22;18821;44.800;10.326;2023-08-30T08:26:33;22.50;99.90
32348;DHT22;18821;44.800;10.326;2023-08-30T08:28:59;22.70;99.90
32348;DHT22;18821;44.800;10.326;2023-08-30T08:31:26;22.90;99.90
32348;DHT22;18821;44.800;10.326;2023-08-30T08:34:10;22.70;99.90
32348;DHT22;18821;44.800;10.326;2023-08-30T08:36:41;22.20;99.90
32348;DHT22;18821;44.800;10.326;2023-08-30T08:39:08;22.10;99.90
32348;DHT22;18821;44.800;10.326;2023-08-30T08:44:05;22.20;99.90
32348;DHT22;18821;44.800;10.326;2023-08-30T08:46:32;22.50;99.90
32348;DHT22;18821;44.800;10.326;2023-08-30T08:49:04;22.80;99.90
32348;DHT22;18821;44.800;10.326;2023-08-30T08:51:31;22.70;99.90
32348;DHT22;18821;44.800;10.326;2023-08-30T08:54:03;22.90;99.90
32348;DHT22;18821;44.800;10.326;2023-08-30T08:56:33;23.20;99.90
32348;DHT22;18821;44.800;10.326;2023-08-30T08:59:00;23.10;99.90
32348;DHT22;18821;44.800;10.326;2023-08-30T09:01:27;22.70;99.90
32348;DHT22;18821;44.800;10.326;2023-08-30T09:03:53;22.40;99.90
32348;DHT22;18821;44.800;10.326;2023-08-30T09:06:21;22.40;99.90
32348;DHT22;18821;44.800;10.326;2023-08-30T09:08:48;22.60;99.90
32348;DHT22;18821;44.800;10.326;2023-08-30T09:11:14;22.90;99.90
32348;DHT22;18821;44.800;10.326;2023-08-30T09:13:41;23.00;99.90
32348;DHT22;18821;44.800;10.326;2023-08-30T09:16:14;23.20;99.90
32348;DHT22;18821;44.800;10.326;2023-08-30T09:18:41;23.40;99.90
32348;DHT22;18821;44.800;10.326;2023-08-30T09:21:11;23.40;99.90
32348;DHT22;18821;44.800;10.326;2023-08-30T09:23:37;23.50;99.90
32348;DHT22;18821;44.800;10.326;2023-08-30T09:26:04;23.50;99.90
32348;DHT22;18821;44.800;10.326;2023-08-30T09:28:31;23.50;99.90
32348;DHT22;18821;44.800;10.326;2023-08-30T09:31:00;23.50;99.90
32348;DHT22;18821;44.800;10.326;2023-08-30T09:33:33;23.40;99.90
32348;DHT22;18821;44.800;10.326;2023-08-30T09:35:59;23.40;99.90
32348;DHT22;18821;44.800;10.326;2023-08-30T09:38:26;23.50;99.90
32348;DHT22;18821;44.800;10.326;2023-08-30T09:41:02;23.50;99.90
32348;DHT22;18821;44.800;10.326;2023-08-30T09:43:28;23.50;99.90
32348;DHT22;18821;44.800;10.326;2023-08-30T09:45:54;23.70;99.90
32348;DHT22;18821;44.800;10.326;2023-08-30T09:48:28;23.90;99.90
32348;DHT22;18821;44.800;10.326;2023-08-30T09:50:58;24.00;99.90
32348;DHT22;18821;44.800;10.326;2023-08-30T09:53:25;24.20;99.90
32348;DHT22;18821;44.800;10.326;2023-08-30T09:55:55;24.10;99.90
32348;DHT22;18821;44.800;10.326;2023-08-30T09:58:22;24.20;99.90
32348;DHT22;18821;44.800;10.326;2023-08-30T10:00:49;24.10;99.90
32348;DHT22;18821;44.800;10.326;2023-08-30T10:03:16;24.30;99.90
32348;DHT22;18821;44.800;10.326;2023-08-30T10:05:45;24.30;99.90
32348;DHT22;18821;44.800;10.326;2023-08-30T10:08:13;24.50;99.90
32348;DHT22;18821;44.800;10.326;2023-08-30T10:10:39;24.40;99.90
32348;DHT22;18821;44.800;10.326;2023-08-30T10:13:06;24.50;99.90
32348;DHT22;18821;44.800;10.326;2023-08-30T10:15:35;24.50;99.90
32348;DHT22;18821;44.800;10.326;2023-08-30T10:18:02;24.50;99.90
32348;DHT22;18821;44.800;10.326;2023-08-30T10:20:29;24.10;99.90
32348;DHT22;18821;44.800;10.326;2023-08-30T10:22:56;24.60;99.90
32348;DHT22;18821;44.800;10.326;2023-08-30T10:25:26;24.70;99.90
32348;DHT22;18821;44.800;10.326;2023-08-30T10:27:54;24.90;99.90
32348;DHT22;18821;44.800;10.326;2023-08-30T10:30:21;24.90;99.90
32348;DHT22;18821;44.800;10.326;2023-08-30T10:32:49;24.60;99.90
32348;DHT22;18821;44.800;10.326;2023-08-30T10:35:17;24.60;99.90
32348;DHT22;18821;44.800;10.326;2023-08-30T10:37:58;24.70;99.90
32348;DHT22;18821;44.800;10.326;2023-08-30T10:40:24;24.60;99.90
32348;DHT22;18821;44.800;10.326;2023-08-30T10:45:26;24.90;99.90
32348;DHT22;18821;44.800;10.326;2023-08-30T10:47:55;24.90;99.90
32348;DHT22;18821;44.800;10.326;2023-08-30T10:50:33;24.90;99.90
32348;DHT22;18821;44.800;10.326;2023-08-30T10:53:00;24.90;99.90
32348;DHT22;18821;44.800;10.326;2023-08-30T10:58:03;25.10;99.90
32348;DHT22;18821;44.800;10.326;2023-08-30T11:00:30;25.30;99.90
32348;DHT22;18821;44.800;10.326;2023-08-30T11:02:57;25.10;99.90
32348;DHT22;18821;44.800;10.326;2023-08-30T11:05:25;25.30;99.90
32348;DHT22;18821;44.800;10.326;2023-08-30T11:07:52;25.50;99.90
32348;DHT22;18821;44.800;10.326;2023-08-30T11:10:19;25.50;99.90
32348;DHT22;18821;44.800;10.326;2023-08-30T11:12:45;25.40;99.90
32348;DHT22;18821;44.800;10.326;2023-08-30T11:15:13;25.50;99.90
32348;DHT22;18821;44.800;10.326;2023-08-30T11:17:40;25.50;99.90
32348;DHT22;18821;44.800;10.326;2023-08-30T11:22:44;25.50;99.90
32348;DHT22;18821;44.800;10.326;2023-08-30T11:25:12;25.60;99.90
32348;DHT22;18821;44.800;10.326;2023-08-30T11:27:39;25.90;99.90
32348;DHT22;18821;44.800;10.326;2023-08-30T11:30:06;25.50;99.90
32348;DHT22;18821;44.800;10.326;2023-08-30T11:35:01;25.60;99.90
32348;DHT22;18821;44.800;10.326;2023-08-30T11:37:27;25.60;99.90
32348;DHT22;18821;44.800;10.326;2023-08-30T11:39:55;25.80;99.90
32348;DHT22;18821;44.800;10.326;2023-08-30T11:42:22;25.50;99.90
32348;DHT22;18821;44.800;10.326;2023-08-30T11:44:49;25.50;99.90
32348;DHT22;18821;44.800;10.326;2023-08-30T11:47:25;25.90;99.90
32348;DHT22;18821;44.800;10.326;2023-08-30T11:49:58;26.00;99.90
32348;DHT22;18821;44.800;10.326;2023-08-30T11:54:53;25.90;99.90
32348;DHT22;18821;44.800;10.326;2023-08-30T11:57:20;25.70;99.90
32348;DHT22;18821;44.800;10.326;2023-08-30T12:02:14;26.00;99.90
32348;DHT22;18821;44.800;10.326;2023-08-30T12:04:43;26.10;99.90
32348;DHT22;18821;44.800;10.326;2023-08-30T12:12:13;26.00;99.90
32348;DHT22;18821;44.800;10.326;2023-08-30T12:14:39;26.40;99.90
32348;DHT22;18821;44.800;10.326;2023-08-30T12:19:34;26.10;99.90
32348;DHT22;18821;44.800;10.326;2023-08-30T12:22:04;25.90;99.90
32348;DHT22;18821;44.800;10.326;2023-08-30T12:24:41;26.10;99.90
32348;DHT22;18821;44.800;10.326;2023-08-30T12:32:00;26.00;99.90
32348;DHT22;18821;44.800;10.326;2023-08-30T12:34:26;26.40;99.90
32348;DHT22;18821;44.800;10.326;2023-08-30T12:36:52;26.40;99.90
32348;DHT22;18821;44.800;10.326;2023-08-30T12:39:18;26.30;99.90
32348;DHT22;18821;44.800;10.326;2023-08-30T12:41:44;26.40;99.90
32348;DHT22;18821;44.800;10.326;2023-08-30T12:44:10;26.50;99.90
32348;DHT22;18821;44.800;10.326;2023-08-30T12:46:36;26.60;99.90
32348;DHT22;18821;44.800;10.326;2023-08-30T12:49:02;26.80;99.90
32348;DHT22;18821;44.800;10.326;2023-08-30T12:51:29;26.70;99.90
32348;DHT22;18821;44.800;10.326;2023-08-30T12:53:56;26.70;99.90
32348;DHT22;18821;44.800;10.326;2023-08-30T12:56:22;26.50;99.90
32348;DHT22;18821;44.800;10.326;2023-08-30T12:58:48;26.30;99.90
32348;DHT22;18821;44.800;10.326;2023-08-30T13:01:14;26.50;99.90
32348;DHT22;18821;44.800;10.326;2023-08-30T13:06:07;26.30;99.90
32348;DHT22;18821;44.800;10.326;2023-08-30T13:08:32;26.50;99.90
32348;DHT22;18821;44.800;10.326;2023-08-30T13:11:02;26.50;99.90
32348;DHT22;18821;44.800;10.326;2023-08-30T13:13:28;26.70;99.90
32348;DHT22;18821;44.800;10.326;2023-08-30T13:20:47;26.40;99.90
32348;DHT22;18821;44.800;10.326;2023-08-30T13:23:13;26.50;99.90
32348;DHT22;18821;44.800;10.326;2023-08-30T13:25:40;26.60;99.90
32348;DHT22;18821;44.800;10.326;2023-08-30T13:28:07;26.50;99.90
32348;DHT22;18821;44.800;10.326;2023-08-30T13:30:34;26.20;99.90
32348;DHT22;18821;44.800;10.326;2023-08-30T13:33:00;26.40;99.90
32348;DHT22;18821;44.800;10.326;2023-08-30T13:35:26;26.50;99.90
32348;DHT22;18821;44.800;10.326;2023-08-30T13:37:52;26.60;99.90
32348;DHT22;18821;44.800;10.326;2023-08-30T13:40:20;26.80;99.90
32348;DHT22;18821;44.800;10.326;2023-08-30T13:42:46;26.20;99.90
32348;DHT22;18821;44.800;10.326;2023-08-30T13:45:13;26.20;99.90
32348;DHT22;18821;44.800;10.326;2023-08-30T13:47:39;26.10;99.90
32348;DHT22;18821;44.800;10.326;2023-08-30T13:50:06;26.00;99.90
32348;DHT22;18821;44.800;10.326;2023-08-30T13:52:32;26.30;99.90
32348;DHT22;18821;44.800;10.326;2023-08-30T13:54:58;26.50;99.90
32348;DHT22;18821;44.800;10.326;2023-08-30T13:57:24;26.60;99.90
32348;DHT22;18821;44.800;10.326;2023-08-30T13:59:50;26.80;99.90
32348;DHT22;18821;44.800;10.326;2023-08-30T14:02:17;26.90;99.90
32348;DHT22;18821;44.800;10.326;2023-08-30T14:04:43;26.70;99.90
32348;DHT22;18821;44.800;10.326;2023-08-30T14:07:08;26.00;99.90
32348;DHT22;18821;44.800;10.326;2023-08-30T14:09:36;26.70;99.90
32348;DHT22;18821;44.800;10.326;2023-08-30T14:14:29;25.90;99.90
32348;DHT22;18821;44.800;10.326;2023-08-30T14:21:50;27.30;99.90
32348;DHT22;18821;44.800;10.326;2023-08-30T14:24:20;26.60;99.90
32348;DHT22;18821;44.800;10.326;2023-08-30T14:31:38;26.30;99.90
32348;DHT22;18821;44.800;10.326;2023-08-30T14:34:04;26.50;99.90
32348;DHT22;18821;44.800;10.326;2023-08-30T14:41:22;26.90;99.90
32348;DHT22;18821;44.800;10.326;2023-08-30T14:53:36;26.10;99.90
32348;DHT22;18821;44.800;10.326;2023-08-30T14:56:03;25.30;99.90
32348;DHT22;18821;44.800;10.326;2023-08-30T14:58:33;26.00;99.90
32348;DHT22;18821;44.800;10.326;2023-08-30T15:03:26;25.70;99.90
32348;DHT22;18821;44.800;10.326;2023-08-30T15:05:53;26.20;99.90
32348;DHT22;18821;44.800;10.326;2023-08-30T15:08:23;25.90;99.90
32348;DHT22;18821;44.800;10.326;2023-08-30T15:13:17;26.10;99.90
32348;DHT22;18821;44.800;10.326;2023-08-30T15:15:43;26.20;99.90
32348;DHT22;18821;44.800;10.326;2023-08-30T15:18:09;26.10;99.90
32348;DHT22;18821;44.800;10.326;2023-08-30T15:23:03;25.90;99.90
32348;DHT22;18821;44.800;10.326;2023-08-30T15:25:30;25.70;99.90
32348;DHT22;18821;44.800;10.326;2023-08-30T15:30:23;24.90;99.90
32348;DHT22;18821;44.800;10.326;2023-08-30T15:35:15;25.80;99.90
32348;DHT22;18821;44.800;10.326;2023-08-30T15:40:08;25.30;99.90
32348;DHT22;18821;44.800;10.326;2023-08-30T15:47:29;24.70;99.90
32348;DHT22;18821;44.800;10.326;2023-08-30T15:49:55;25.20;99.90
32348;DHT22;18821;44.800;10.326;2023-08-30T15:52:21;25.10;99.90
32348;DHT22;18821;44.800;10.326;2023-08-30T15:54:47;25.20;99.90
32348;DHT22;18821;44.800;10.326;2023-08-30T15:57:14;25.20;99.90
32348;DHT22;18821;44.800;10.326;2023-08-30T15:59:40;25.20;99.90
32348;DHT22;18821;44.800;10.326;2023-08-30T16:02:06;25.30;99.90
32348;DHT22;18821;44.800;10.326;2023-08-30T16:04:31;25.30;99.90
32348;DHT22;18821;44.800;10.326;2023-08-30T16:06:59;25.30;99.90
32348;DHT22;18821;44.800;10.326;2023-08-30T16:09:26;25.70;99.90
32348;DHT22;18821;44.800;10.326;2023-08-30T16:14:18;25.20;99.90
32348;DHT22;18821;44.800;10.326;2023-08-30T16:16:44;25.40;99.90
32348;DHT22;18821;44.800;10.326;2023-08-30T16:19:10;25.50;99.90
32348;DHT22;18821;44.800;10.326;2023-08-30T16:21:37;25.40;99.90
32348;DHT22;18821;44.800;10.326;2023-08-30T16:24:03;25.40;99.90
32348;DHT22;18821;44.800;10.326;2023-08-30T16:26:30;25.50;99.90
32348;DHT22;18821;44.800;10.326;2023-08-30T16:28:56;25.50;99.90
32348;DHT22;18821;44.800;10.326;2023-08-30T16:31:28;25.50;99.90
32348;DHT22;18821;44.800;10.326;2023-08-30T16:33:55;25.50;99.90
32348;DHT22;18821;44.800;10.326;2023-08-30T16:36:21;25.50;99.90
32348;DHT22;18821;44.800;10.326;2023-08-30T16:46:09;25.00;99.90
32348;DHT22;18821;44.800;10.326;2023-08-30T16:48:35;25.00;99.90
32348;DHT22;18821;44.800;10.326;2023-08-30T16:53:31;25.60;99.90
32348;DHT22;18821;44.800;10.326;2023-08-30T16:56:00;25.70;99.90
32348;DHT22;18821;44.800;10.326;2023-08-30T16:58:29;24.90;99.90
32348;DHT22;18821;44.800;10.326;2023-08-30T17:00:55;25.20;99.90
32348;DHT22;18821;44.800;10.326;2023-08-30T17:03:23;25.00;99.90
32348;DHT22;18821;44.800;10.326;2023-08-30T17:05:50;24.70;99.90
32348;DHT22;18821;44.800;10.326;2023-08-30T17:08:17;24.80;99.90
32348;DHT22;18821;44.800;10.326;2023-08-30T17:10:43;24.60;99.90
32348;DHT22;18821;44.800;10.326;2023-08-30T17:13:09;24.50;99.90
32348;DHT22;18821;44.800;10.326;2023-08-30T17:15:35;24.80;99.90
32348;DHT22;18821;44.800;10.326;2023-08-30T17:18:01;24.30;99.90
32348;DHT22;18821;44.800;10.326;2023-08-30T17:20:27;24.70;99.90
32348;DHT22;18821;44.800;10.326;2023-08-30T17:22:53;23.80;99.90
32348;DHT22;18821;44.800;10.326;2023-08-30T17:25:19;23.20;99.90
32348;DHT22;18821;44.800;10.326;2023-08-30T17:27:45;24.40;99.90
32348;DHT22;18821;44.800;10.326;2023-08-30T17:30:12;23.80;99.90
32348;DHT22;18821;44.800;10.326;2023-08-30T17:32:39;22.90;99.90